Terminal Aerodrome Forecast
Issued by NWS

Current Version | Previous Version | Text Only | Print | Product List | Glossary On
Versions: 1 2 3 4 5 6 7 8 9 10 11 12 13 14 15 16 17 18 19 20 21 22 23 24 25 26 27
000
FTUS41 KILN 231700
TAFLUK
TAF
KLUK 231720Z 2318/2418 04005KT P6SM SKC
     FM240000 00000KT P6SM SKC
     FM240600 00000KT 4SM BR SKC
      TEMPO 2408/2412 1SM BR
     FM241300 05003KT P6SM FEW040=

USA.gov is the U.S. government's official web portal to all federal, state and local government web resources and services.